logo
Search for airport 
image banner adimage banner adimage banner ad
image banner ad

CLE4 - Lower East Pubnico (La Field)

Located in , Canada

ICAO - CLE4, IATA -

Data provided by Airmate  

General information

Coordinates: N43°37'20" W65°45'44"
Elevation is 107 feet MSL.
Magnetic variation is -17.0147° East
View others Airports in Nova Scotia

Operational data

Special qualification required
Current time UTC:
Current local time:
Weather at : CYQI - Yarmouth ( 35 km )
METAR: CYQI 230400Z 33005KT 280V340 15SM SKC 03/01 A3014 RMK SLP211
TAF: TAF CYQI 222341Z 2300/2312 28010KT P6SM FEW250 BECMG 2304/2306 VRB03KT FM230900 09005KT P6SM SKC RMK NXT FCST BY 230600Z
View NOTAMs / SUP AIP / TFR affecting this airport [VIEW]
Communications frequencies: [VIEW]

Runways:

RWY identifierQFULength (ft)Width (ft)SurfaceLDA (ft)
1083°200075GRASS
28263°200075GRASS

Airport contact information

Address: Canada

Satellite view of CLE4